sensor_id;sensor_type;location;lat;lon;timestamp;temperature;humidity
53962;DHT22;39868;53.398;6.564;2022-07-18T00:00:26;19.40;68.80
53962;DHT22;39868;53.398;6.564;2022-07-18T00:02:53;19.40;68.80
53962;DHT22;39868;53.398;6.564;2022-07-18T00:05:23;19.40;68.90
53962;DHT22;39868;53.398;6.564;2022-07-18T00:07:51;19.40;68.90
53962;DHT22;39868;53.398;6.564;2022-07-18T00:10:18;19.40;68.90
53962;DHT22;39868;53.398;6.564;2022-07-18T00:12:46;19.40;68.90
53962;DHT22;39868;53.398;6.564;2022-07-18T00:15:13;19.40;68.80
53962;DHT22;39868;53.398;6.564;2022-07-18T00:17:41;19.40;68.80
53962;DHT22;39868;53.398;6.564;2022-07-18T00:20:10;19.30;68.90
53962;DHT22;39868;53.398;6.564;2022-07-18T00:22:38;19.30;69.00
53962;DHT22;39868;53.398;6.564;2022-07-18T00:25:06;19.30;69.00
53962;DHT22;39868;53.398;6.564;2022-07-18T00:27:34;19.30;69.00
53962;DHT22;39868;53.398;6.564;2022-07-18T00:30:03;19.30;68.90
53962;DHT22;39868;53.398;6.564;2022-07-18T00:32:31;19.20;68.90
53962;DHT22;39868;53.398;6.564;2022-07-18T00:34:58;19.20;68.80
53962;DHT22;39868;53.398;6.564;2022-07-18T00:37:26;19.20;68.90
53962;DHT22;39868;53.398;6.564;2022-07-18T00:39:53;19.20;69.00
53962;DHT22;39868;53.398;6.564;2022-07-18T00:42:21;19.10;69.00
53962;DHT22;39868;53.398;6.564;2022-07-18T00:44:53;19.10;69.10
53962;DHT22;39868;53.398;6.564;2022-07-18T00:47:22;19.10;69.20
53962;DHT22;39868;53.398;6.564;2022-07-18T00:49:50;19.00;69.10
53962;DHT22;39868;53.398;6.564;2022-07-18T00:52:17;19.00;69.10
53962;DHT22;39868;53.398;6.564;2022-07-18T00:54:45;19.00;69.10
53962;DHT22;39868;53.398;6.564;2022-07-18T00:57:12;18.90;69.10
53962;DHT22;39868;53.398;6.564;2022-07-18T00:59:41;18.90;69.10
53962;DHT22;39868;53.398;6.564;2022-07-18T01:02:27;18.90;69.20
53962;DHT22;39868;53.398;6.564;2022-07-18T01:04:54;18.80;69.20
53962;DHT22;39868;53.398;6.564;2022-07-18T01:07:22;18.80;69.20
53962;DHT22;39868;53.398;6.564;2022-07-18T01:09:49;18.80;69.20
53962;DHT22;39868;53.398;6.564;2022-07-18T01:12:17;18.70;69.20
53962;DHT22;39868;53.398;6.564;2022-07-18T01:14:45;18.70;69.20
53962;DHT22;39868;53.398;6.564;2022-07-18T01:17:16;18.70;69.30
53962;DHT22;39868;53.398;6.564;2022-07-18T01:19:44;18.70;69.40
53962;DHT22;39868;53.398;6.564;2022-07-18T01:22:14;18.60;69.40
53962;DHT22;39868;53.398;6.564;2022-07-18T01:24:42;18.60;69.50
53962;DHT22;39868;53.398;6.564;2022-07-18T01:27:17;18.60;69.50
53962;DHT22;39868;53.398;6.564;2022-07-18T01:29:46;18.50;69.50
53962;DHT22;39868;53.398;6.564;2022-07-18T01:32:15;18.60;69.50
53962;DHT22;39868;53.398;6.564;2022-07-18T01:34:46;18.50;69.50
53962;DHT22;39868;53.398;6.564;2022-07-18T01:37:14;18.50;69.60
53962;DHT22;39868;53.398;6.564;2022-07-18T01:39:43;18.50;69.60
53962;DHT22;39868;53.398;6.564;2022-07-18T01:42:11;18.50;69.60
53962;DHT22;39868;53.398;6.564;2022-07-18T01:44:39;18.50;69.60
53962;DHT22;39868;53.398;6.564;2022-07-18T01:47:09;18.50;69.60
53962;DHT22;39868;53.398;6.564;2022-07-18T01:49:39;18.40;69.60
53962;DHT22;39868;53.398;6.564;2022-07-18T01:52:07;18.40;69.60
53962;DHT22;39868;53.398;6.564;2022-07-18T01:54:37;18.40;69.60
53962;DHT22;39868;53.398;6.564;2022-07-18T01:57:06;18.30;69.70
53962;DHT22;39868;53.398;6.564;2022-07-18T01:59:34;18.30;69.70
53962;DHT22;39868;53.398;6.564;2022-07-18T02:02:03;18.30;69.80
53962;DHT22;39868;53.398;6.564;2022-07-18T02:04:35;18.30;69.90
53962;DHT22;39868;53.398;6.564;2022-07-18T02:07:21;18.30;69.90
53962;DHT22;39868;53.398;6.564;2022-07-18T02:09:49;18.30;70.00
53962;DHT22;39868;53.398;6.564;2022-07-18T02:12:17;18.30;70.20
53962;DHT22;39868;53.398;6.564;2022-07-18T02:14:44;18.30;70.20
53962;DHT22;39868;53.398;6.564;2022-07-18T02:17:12;18.30;70.20
53962;DHT22;39868;53.398;6.564;2022-07-18T02:19:39;18.30;70.20
53962;DHT22;39868;53.398;6.564;2022-07-18T02:22:07;18.30;70.20
53962;DHT22;39868;53.398;6.564;2022-07-18T02:24:34;18.30;70.00
53962;DHT22;39868;53.398;6.564;2022-07-18T02:27:02;18.30;69.90
53962;DHT22;39868;53.398;6.564;2022-07-18T02:29:30;18.30;69.70
53962;DHT22;39868;53.398;6.564;2022-07-18T02:31:58;18.30;69.60
53962;DHT22;39868;53.398;6.564;2022-07-18T02:34:25;18.30;69.60
53962;DHT22;39868;53.398;6.564;2022-07-18T02:36:52;18.20;69.60
53962;DHT22;39868;53.398;6.564;2022-07-18T02:39:20;18.20;69.60
53962;DHT22;39868;53.398;6.564;2022-07-18T02:41:48;18.20;69.80
53962;DHT22;39868;53.398;6.564;2022-07-18T02:44:15;18.10;69.90
53962;DHT22;39868;53.398;6.564;2022-07-18T02:46:43;18.10;70.00
53962;DHT22;39868;53.398;6.564;2022-07-18T02:49:11;18.10;70.60
53962;DHT22;39868;53.398;6.564;2022-07-18T02:52:04;18.10;70.10
53962;DHT22;39868;53.398;6.564;2022-07-18T02:54:34;18.00;70.30
53962;DHT22;39868;53.398;6.564;2022-07-18T02:57:01;18.00;70.30
53962;DHT22;39868;53.398;6.564;2022-07-18T02:59:29;18.00;70.40
53962;DHT22;39868;53.398;6.564;2022-07-18T03:01:58;18.00;70.50
53962;DHT22;39868;53.398;6.564;2022-07-18T03:04:26;18.00;70.50
53962;DHT22;39868;53.398;6.564;2022-07-18T03:06:53;18.00;70.50
53962;DHT22;39868;53.398;6.564;2022-07-18T03:09:21;18.00;70.50
53962;DHT22;39868;53.398;6.564;2022-07-18T03:11:48;18.10;70.60
53962;DHT22;39868;53.398;6.564;2022-07-18T03:14:16;18.10;70.50
53962;DHT22;39868;53.398;6.564;2022-07-18T03:16:43;18.10;70.50
53962;DHT22;39868;53.398;6.564;2022-07-18T03:19:11;18.10;70.40
53962;DHT22;39868;53.398;6.564;2022-07-18T03:21:38;18.10;70.40
53962;DHT22;39868;53.398;6.564;2022-07-18T03:24:06;18.10;70.40
53962;DHT22;39868;53.398;6.564;2022-07-18T03:26:33;18.20;70.30
53962;DHT22;39868;53.398;6.564;2022-07-18T03:29:01;18.10;70.20
53962;DHT22;39868;53.398;6.564;2022-07-18T03:31:28;18.10;70.10
53962;DHT22;39868;53.398;6.564;2022-07-18T03:33:56;18.10;70.10
53962;DHT22;39868;53.398;6.564;2022-07-18T03:36:23;18.10;70.10
53962;DHT22;39868;53.398;6.564;2022-07-18T03:38:50;18.10;70.10
53962;DHT22;39868;53.398;6.564;2022-07-18T03:41:18;18.10;70.10
53962;DHT22;39868;53.398;6.564;2022-07-18T03:43:45;18.10;70.10
53962;DHT22;39868;53.398;6.564;2022-07-18T03:46:13;18.10;70.70
53962;DHT22;39868;53.398;6.564;2022-07-18T03:48:40;18.10;70.20
53962;DHT22;39868;53.398;6.564;2022-07-18T03:51:08;18.10;70.30
53962;DHT22;39868;53.398;6.564;2022-07-18T03:53:35;18.10;70.30
53962;DHT22;39868;53.398;6.564;2022-07-18T03:56:03;18.10;70.40
53962;DHT22;39868;53.398;6.564;2022-07-18T03:58:30;18.10;70.40
53962;DHT22;39868;53.398;6.564;2022-07-18T04:00:58;18.10;70.40
53962;DHT22;39868;53.398;6.564;2022-07-18T04:03:26;18.10;70.40
53962;DHT22;39868;53.398;6.564;2022-07-18T04:05:53;18.10;70.40
53962;DHT22;39868;53.398;6.564;2022-07-18T04:08:21;18.10;70.40
53962;DHT22;39868;53.398;6.564;2022-07-18T04:10:49;18.10;70.40
53962;DHT22;39868;53.398;6.564;2022-07-18T04:13:16;18.10;70.40
53962;DHT22;39868;53.398;6.564;2022-07-18T04:15:44;18.10;70.40
53962;DHT22;39868;53.398;6.564;2022-07-18T04:18:11;18.10;70.40
53962;DHT22;39868;53.398;6.564;2022-07-18T04:20:39;18.10;70.40
53962;DHT22;39868;53.398;6.564;2022-07-18T04:23:08;18.10;70.50
53962;DHT22;39868;53.398;6.564;2022-07-18T04:25:40;18.10;71.10
53962;DHT22;39868;53.398;6.564;2022-07-18T04:28:10;18.10;70.60
53962;DHT22;39868;53.398;6.564;2022-07-18T04:30:39;18.10;70.60
53962;DHT22;39868;53.398;6.564;2022-07-18T04:33:08;18.10;70.60
53962;DHT22;39868;53.398;6.564;2022-07-18T04:35:36;18.10;70.60
53962;DHT22;39868;53.398;6.564;2022-07-18T04:38:06;18.20;70.70
53962;DHT22;39868;53.398;6.564;2022-07-18T04:40:35;18.20;70.70
53962;DHT22;39868;53.398;6.564;2022-07-18T04:43:03;18.20;70.70
53962;DHT22;39868;53.398;6.564;2022-07-18T04:45:30;18.20;70.70
53962;DHT22;39868;53.398;6.564;2022-07-18T04:47:58;18.20;70.80
53962;DHT22;39868;53.398;6.564;2022-07-18T04:50:26;18.30;70.90
53962;DHT22;39868;53.398;6.564;2022-07-18T04:52:53;18.30;70.90
53962;DHT22;39868;53.398;6.564;2022-07-18T04:55:21;18.30;71.40
53962;DHT22;39868;53.398;6.564;2022-07-18T04:57:50;18.30;70.80
53962;DHT22;39868;53.398;6.564;2022-07-18T05:00:20;18.40;70.90
53962;DHT22;39868;53.398;6.564;2022-07-18T05:02:50;18.40;70.90
53962;DHT22;39868;53.398;6.564;2022-07-18T05:05:19;18.40;70.90
53962;DHT22;39868;53.398;6.564;2022-07-18T05:07:48;18.40;70.80
53962;DHT22;39868;53.398;6.564;2022-07-18T05:10:18;18.50;70.90
53962;DHT22;39868;53.398;6.564;2022-07-18T05:12:47;18.50;70.90
53962;DHT22;39868;53.398;6.564;2022-07-18T05:15:17;18.50;70.90
53962;DHT22;39868;53.398;6.564;2022-07-18T05:17:45;18.50;70.90
53962;DHT22;39868;53.398;6.564;2022-07-18T05:20:17;18.60;71.00
53962;DHT22;39868;53.398;6.564;2022-07-18T05:22:45;18.60;71.00
53962;DHT22;39868;53.398;6.564;2022-07-18T05:25:13;18.60;71.00
53962;DHT22;39868;53.398;6.564;2022-07-18T05:27:41;18.70;71.00
53962;DHT22;39868;53.398;6.564;2022-07-18T05:30:11;18.70;71.00
53962;DHT22;39868;53.398;6.564;2022-07-18T05:32:42;18.80;71.20
53962;DHT22;39868;53.398;6.564;2022-07-18T05:35:11;18.80;71.30
53962;DHT22;39868;53.398;6.564;2022-07-18T05:37:39;18.80;71.20
53962;DHT22;39868;53.398;6.564;2022-07-18T05:40:10;18.90;71.20
53962;DHT22;39868;53.398;6.564;2022-07-18T05:42:37;18.90;71.20
53962;DHT22;39868;53.398;6.564;2022-07-18T05:45:24;19.00;71.30
53962;DHT22;39868;53.398;6.564;2022-07-18T05:47:53;19.00;71.40
53962;DHT22;39868;53.398;6.564;2022-07-18T05:50:22;19.00;71.40
53962;DHT22;39868;53.398;6.564;2022-07-18T05:52:50;19.10;71.40
53962;DHT22;39868;53.398;6.564;2022-07-18T05:55:18;19.10;71.40
53962;DHT22;39868;53.398;6.564;2022-07-18T05:57:46;19.20;71.40
53962;DHT22;39868;53.398;6.564;2022-07-18T06:00:14;19.20;71.50
53962;DHT22;39868;53.398;6.564;2022-07-18T06:02:42;19.30;71.60
53962;DHT22;39868;53.398;6.564;2022-07-18T06:05:10;19.30;71.60
53962;DHT22;39868;53.398;6.564;2022-07-18T06:07:49;19.40;71.70
53962;DHT22;39868;53.398;6.564;2022-07-18T06:10:17;19.40;71.70
53962;DHT22;39868;53.398;6.564;2022-07-18T06:12:44;19.50;71.70
53962;DHT22;39868;53.398;6.564;2022-07-18T06:15:12;19.60;71.60
53962;DHT22;39868;53.398;6.564;2022-07-18T06:17:40;19.60;71.40
53962;DHT22;39868;53.398;6.564;2022-07-18T06:20:07;19.70;71.30
53962;DHT22;39868;53.398;6.564;2022-07-18T06:22:36;19.80;71.20
53962;DHT22;39868;53.398;6.564;2022-07-18T06:25:04;19.80;71.00
53962;DHT22;39868;53.398;6.564;2022-07-18T06:27:31;19.90;71.00
53962;DHT22;39868;53.398;6.564;2022-07-18T06:29:59;19.90;70.60
53962;DHT22;39868;53.398;6.564;2022-07-18T06:32:26;20.00;70.60
53962;DHT22;39868;53.398;6.564;2022-07-18T06:34:54;20.10;70.40
53962;DHT22;39868;53.398;6.564;2022-07-18T06:37:21;20.20;70.50
53962;DHT22;39868;53.398;6.564;2022-07-18T06:39:49;20.20;70.40
53962;DHT22;39868;53.398;6.564;2022-07-18T06:42:16;20.30;70.30
53962;DHT22;39868;53.398;6.564;2022-07-18T06:44:44;20.40;69.90
53962;DHT22;39868;53.398;6.564;2022-07-18T06:47:11;20.40;69.90
53962;DHT22;39868;53.398;6.564;2022-07-18T06:49:38;20.50;69.90
53962;DHT22;39868;53.398;6.564;2022-07-18T06:52:06;20.50;69.80
53962;DHT22;39868;53.398;6.564;2022-07-18T06:54:34;20.60;69.70
53962;DHT22;39868;53.398;6.564;2022-07-18T06:57:03;20.70;69.60
53962;DHT22;39868;53.398;6.564;2022-07-18T06:59:34;20.70;69.50
53962;DHT22;39868;53.398;6.564;2022-07-18T07:02:02;20.80;69.50
53962;DHT22;39868;53.398;6.564;2022-07-18T07:04:30;20.90;69.40
53962;DHT22;39868;53.398;6.564;2022-07-18T07:06:57;21.00;69.40
53962;DHT22;39868;53.398;6.564;2022-07-18T07:09:25;21.10;69.10
53962;DHT22;39868;53.398;6.564;2022-07-18T07:11:53;21.20;68.00
53962;DHT22;39868;53.398;6.564;2022-07-18T07:14:20;21.30;68.10
53962;DHT22;39868;53.398;6.564;2022-07-18T07:16:47;21.40;67.10
53962;DHT22;39868;53.398;6.564;2022-07-18T07:19:15;21.50;67.00
53962;DHT22;39868;53.398;6.564;2022-07-18T07:21:42;21.60;67.20
53962;DHT22;39868;53.398;6.564;2022-07-18T07:24:10;21.70;67.30
53962;DHT22;39868;53.398;6.564;2022-07-18T07:26:37;21.80;66.50
53962;DHT22;39868;53.398;6.564;2022-07-18T07:29:04;21.90;67.00
53962;DHT22;39868;53.398;6.564;2022-07-18T07:31:32;21.90;66.20
53962;DHT22;39868;53.398;6.564;2022-07-18T07:34:00;22.00;65.40
53962;DHT22;39868;53.398;6.564;2022-07-18T07:36:32;22.10;65.30
53962;DHT22;39868;53.398;6.564;2022-07-18T07:39:00;22.20;67.10
53962;DHT22;39868;53.398;6.564;2022-07-18T07:41:27;22.30;65.80
53962;DHT22;39868;53.398;6.564;2022-07-18T07:43:55;22.40;66.60
53962;DHT22;39868;53.398;6.564;2022-07-18T07:46:22;22.40;66.20
53962;DHT22;39868;53.398;6.564;2022-07-18T07:48:50;22.50;66.20
53962;DHT22;39868;53.398;6.564;2022-07-18T07:51:17;22.70;66.20
53962;DHT22;39868;53.398;6.564;2022-07-18T07:53:51;22.80;66.10
53962;DHT22;39868;53.398;6.564;2022-07-18T07:56:18;22.90;66.40
53962;DHT22;39868;53.398;6.564;2022-07-18T07:58:47;23.00;65.60
53962;DHT22;39868;53.398;6.564;2022-07-18T08:01:15;23.00;64.90
53962;DHT22;39868;53.398;6.564;2022-07-18T08:03:46;23.10;64.00
53962;DHT22;39868;53.398;6.564;2022-07-18T08:06:16;23.20;63.60
53962;DHT22;39868;53.398;6.564;2022-07-18T08:08:43;23.20;63.50
53962;DHT22;39868;53.398;6.564;2022-07-18T08:11:11;23.30;63.50
53962;DHT22;39868;53.398;6.564;2022-07-18T08:13:38;23.40;63.70
53962;DHT22;39868;53.398;6.564;2022-07-18T08:16:06;23.40;63.40
53962;DHT22;39868;53.398;6.564;2022-07-18T08:18:33;23.50;63.50
53962;DHT22;39868;53.398;6.564;2022-07-18T08:21:01;23.50;62.40
53962;DHT22;39868;53.398;6.564;2022-07-18T08:23:28;23.60;62.80
53962;DHT22;39868;53.398;6.564;2022-07-18T08:25:56;23.70;63.30
53962;DHT22;39868;53.398;6.564;2022-07-18T08:28:23;23.90;62.90
53962;DHT22;39868;53.398;6.564;2022-07-18T08:30:51;23.90;63.10
53962;DHT22;39868;53.398;6.564;2022-07-18T08:33:19;24.00;62.70
53962;DHT22;39868;53.398;6.564;2022-07-18T08:35:46;24.10;63.30
53962;DHT22;39868;53.398;6.564;2022-07-18T08:38:14;24.20;62.30
53962;DHT22;39868;53.398;6.564;2022-07-18T08:40:42;24.30;61.50
53962;DHT22;39868;53.398;6.564;2022-07-18T08:43:10;24.40;61.50
53962;DHT22;39868;53.398;6.564;2022-07-18T08:45:49;24.40;61.60
53962;DHT22;39868;53.398;6.564;2022-07-18T08:48:18;24.50;62.10
53962;DHT22;39868;53.398;6.564;2022-07-18T08:50:47;24.50;62.50
53962;DHT22;39868;53.398;6.564;2022-07-18T08:53:16;24.50;62.30
53962;DHT22;39868;53.398;6.564;2022-07-18T08:55:44;24.60;62.40
53962;DHT22;39868;53.398;6.564;2022-07-18T08:58:14;24.60;62.50
53962;DHT22;39868;53.398;6.564;2022-07-18T09:01:02;24.70;62.40
53962;DHT22;39868;53.398;6.564;2022-07-18T09:03:30;24.70;61.00
53962;DHT22;39868;53.398;6.564;2022-07-18T09:08:34;24.80;61.20
53962;DHT22;39868;53.398;6.564;2022-07-18T09:11:03;24.80;60.80
53962;DHT22;39868;53.398;6.564;2022-07-18T09:13:40;24.90;61.10
53962;DHT22;39868;53.398;6.564;2022-07-18T09:16:12;24.90;60.70
53962;DHT22;39868;53.398;6.564;2022-07-18T09:18:45;25.00;60.70
53962;DHT22;39868;53.398;6.564;2022-07-18T09:21:23;25.00;60.10
53962;DHT22;39868;53.398;6.564;2022-07-18T09:23:52;25.10;59.80
53962;DHT22;39868;53.398;6.564;2022-07-18T09:26:43;25.20;58.50
53962;DHT22;39868;53.398;6.564;2022-07-18T09:29:16;25.20;59.60
53962;DHT22;39868;53.398;6.564;2022-07-18T09:31:55;25.20;58.80
53962;DHT22;39868;53.398;6.564;2022-07-18T09:34:37;25.30;58.70
53962;DHT22;39868;53.398;6.564;2022-07-18T09:37:11;25.40;59.50
53962;DHT22;39868;53.398;6.564;2022-07-18T09:39:39;25.50;58.50
53962;DHT22;39868;53.398;6.564;2022-07-18T09:42:17;25.50;58.60
53962;DHT22;39868;53.398;6.564;2022-07-18T09:45:11;25.60;59.40
53962;DHT22;39868;53.398;6.564;2022-07-18T09:47:56;25.70;60.30
53962;DHT22;39868;53.398;6.564;2022-07-18T09:50:29;25.80;58.30
53962;DHT22;39868;53.398;6.564;2022-07-18T09:53:14;25.90;58.00
53962;DHT22;39868;53.398;6.564;2022-07-18T09:58:31;26.00;56.80
53962;DHT22;39868;53.398;6.564;2022-07-18T10:01:00;26.10;57.10
53962;DHT22;39868;53.398;6.564;2022-07-18T10:03:29;26.20;57.70
53962;DHT22;39868;53.398;6.564;2022-07-18T10:05:58;26.20;58.30
53962;DHT22;39868;53.398;6.564;2022-07-18T10:08:28;26.30;56.80
53962;DHT22;39868;53.398;6.564;2022-07-18T10:10:57;26.40;56.30
53962;DHT22;39868;53.398;6.564;2022-07-18T10:13:28;26.50;56.80
53962;DHT22;39868;53.398;6.564;2022-07-18T10:15:56;26.50;57.20
53962;DHT22;39868;53.398;6.564;2022-07-18T10:18:26;26.60;57.00
53962;DHT22;39868;53.398;6.564;2022-07-18T10:23:42;26.80;57.10
53962;DHT22;39868;53.398;6.564;2022-07-18T10:26:21;26.90;56.70
53962;DHT22;39868;53.398;6.564;2022-07-18T10:33:53;27.10;56.20
53962;DHT22;39868;53.398;6.564;2022-07-18T10:36:22;27.20;55.40
53962;DHT22;39868;53.398;6.564;2022-07-18T10:41:31;27.40;55.80
53962;DHT22;39868;53.398;6.564;2022-07-18T10:43:59;27.40;56.00
53962;DHT22;39868;53.398;6.564;2022-07-18T10:57:41;27.90;53.00
53962;DHT22;39868;53.398;6.564;2022-07-18T11:00:13;28.00;53.00
53962;DHT22;39868;53.398;6.564;2022-07-18T11:18:26;28.50;53.50
53962;DHT22;39868;53.398;6.564;2022-07-18T11:20:54;28.50;52.90
53962;DHT22;39868;53.398;6.564;2022-07-18T11:23:25;28.60;52.10
53962;DHT22;39868;53.398;6.564;2022-07-18T11:25:58;28.70;53.50
53962;DHT22;39868;53.398;6.564;2022-07-18T11:28:27;28.80;53.00
53962;DHT22;39868;53.398;6.564;2022-07-18T11:33:32;29.00;53.10
53962;DHT22;39868;53.398;6.564;2022-07-18T11:36:10;29.10;52.00
53962;DHT22;39868;53.398;6.564;2022-07-18T11:41:26;29.20;51.40
53962;DHT22;39868;53.398;6.564;2022-07-18T11:43:55;29.30;51.90
53962;DHT22;39868;53.398;6.564;2022-07-18T11:46:25;29.40;51.40
53962;DHT22;39868;53.398;6.564;2022-07-18T11:49:01;29.40;51.80
53962;DHT22;39868;53.398;6.564;2022-07-18T11:51:40;29.50;49.80
53962;DHT22;39868;53.398;6.564;2022-07-18T11:54:09;29.50;51.60
53962;DHT22;39868;53.398;6.564;2022-07-18T11:56:48;29.60;50.90
53962;DHT22;39868;53.398;6.564;2022-07-18T11:59:16;29.70;51.20
53962;DHT22;39868;53.398;6.564;2022-07-18T12:01:44;29.70;51.10
53962;DHT22;39868;53.398;6.564;2022-07-18T12:04:21;29.80;50.20
53962;DHT22;39868;53.398;6.564;2022-07-18T12:07:15;29.90;50.30
53962;DHT22;39868;53.398;6.564;2022-07-18T12:09:44;30.00;50.90
53962;DHT22;39868;53.398;6.564;2022-07-18T12:12:13;30.00;49.80
53962;DHT22;39868;53.398;6.564;2022-07-18T12:14:57;30.10;50.10
53962;DHT22;39868;53.398;6.564;2022-07-18T12:17:26;30.10;48.90
53962;DHT22;39868;53.398;6.564;2022-07-18T12:20:09;30.10;50.30
53962;DHT22;39868;53.398;6.564;2022-07-18T12:23:10;30.20;50.10
53962;DHT22;39868;53.398;6.564;2022-07-18T12:25:40;30.30;50.70
53962;DHT22;39868;53.398;6.564;2022-07-18T12:28:18;30.30;49.40
53962;DHT22;39868;53.398;6.564;2022-07-18T12:30:46;30.40;49.90
53962;DHT22;39868;53.398;6.564;2022-07-18T12:33:14;30.50;49.30
53962;DHT22;39868;53.398;6.564;2022-07-18T12:35:43;30.60;49.50
53962;DHT22;39868;53.398;6.564;2022-07-18T12:38:16;30.60;49.60
53962;DHT22;39868;53.398;6.564;2022-07-18T12:40:53;30.70;47.30
53962;DHT22;39868;53.398;6.564;2022-07-18T12:45:56;30.90;47.80
53962;DHT22;39868;53.398;6.564;2022-07-18T12:48:27;30.90;47.60
53962;DHT22;39868;53.398;6.564;2022-07-18T12:53:23;31.10;47.00
53962;DHT22;39868;53.398;6.564;2022-07-18T12:55:51;31.10;46.50
53962;DHT22;39868;53.398;6.564;2022-07-18T12:58:19;31.20;46.70
53962;DHT22;39868;53.398;6.564;2022-07-18T13:00:47;31.30;46.80
53962;DHT22;39868;53.398;6.564;2022-07-18T13:03:15;31.40;46.00
53962;DHT22;39868;53.398;6.564;2022-07-18T13:05:42;31.50;45.70
53962;DHT22;39868;53.398;6.564;2022-07-18T13:08:10;31.50;46.20
53962;DHT22;39868;53.398;6.564;2022-07-18T13:10:39;31.70;46.40
53962;DHT22;39868;53.398;6.564;2022-07-18T13:13:08;31.80;45.50
53962;DHT22;39868;53.398;6.564;2022-07-18T13:15:36;31.90;46.40
53962;DHT22;39868;53.398;6.564;2022-07-18T13:18:05;31.90;45.80
53962;DHT22;39868;53.398;6.564;2022-07-18T13:20:32;32.00;44.90
53962;DHT22;39868;53.398;6.564;2022-07-18T13:23:00;32.00;46.60
53962;DHT22;39868;53.398;6.564;2022-07-18T13:25:28;32.00;45.40
53962;DHT22;39868;53.398;6.564;2022-07-18T13:27:56;32.00;45.30
53962;DHT22;39868;53.398;6.564;2022-07-18T13:30:23;32.00;45.00
53962;DHT22;39868;53.398;6.564;2022-07-18T13:32:51;32.00;44.90
53962;DHT22;39868;53.398;6.564;2022-07-18T13:35:18;32.00;46.40
53962;DHT22;39868;53.398;6.564;2022-07-18T13:37:46;32.10;45.40
53962;DHT22;39868;53.398;6.564;2022-07-18T13:40:14;32.10;45.50
53962;DHT22;39868;53.398;6.564;2022-07-18T13:42:42;32.20;45.30
53962;DHT22;39868;53.398;6.564;2022-07-18T13:45:10;32.30;46.20
53962;DHT22;39868;53.398;6.564;2022-07-18T13:47:41;32.40;45.50
53962;DHT22;39868;53.398;6.564;2022-07-18T13:50:10;32.40;44.90
53962;DHT22;39868;53.398;6.564;2022-07-18T13:52:38;32.50;45.00
53962;DHT22;39868;53.398;6.564;2022-07-18T13:55:06;32.60;44.70
53962;DHT22;39868;53.398;6.564;2022-07-18T13:57:33;32.70;44.90
53962;DHT22;39868;53.398;6.564;2022-07-18T14:00:02;32.70;45.60
53962;DHT22;39868;53.398;6.564;2022-07-18T14:02:33;32.90;45.00
53962;DHT22;39868;53.398;6.564;2022-07-18T14:05:01;32.90;45.90
53962;DHT22;39868;53.398;6.564;2022-07-18T14:07:44;33.00;45.70
53962;DHT22;39868;53.398;6.564;2022-07-18T14:10:13;33.00;43.70
53962;DHT22;39868;53.398;6.564;2022-07-18T14:12:42;33.00;44.30
53962;DHT22;39868;53.398;6.564;2022-07-18T14:15:10;33.10;45.70
53962;DHT22;39868;53.398;6.564;2022-07-18T14:17:37;33.00;45.70
53962;DHT22;39868;53.398;6.564;2022-07-18T14:20:06;33.00;45.60
53962;DHT22;39868;53.398;6.564;2022-07-18T14:22:36;33.00;44.20
53962;DHT22;39868;53.398;6.564;2022-07-18T14:25:05;33.00;45.20
53962;DHT22;39868;53.398;6.564;2022-07-18T14:27:33;33.00;45.40
53962;DHT22;39868;53.398;6.564;2022-07-18T14:30:04;33.00;44.20
53962;DHT22;39868;53.398;6.564;2022-07-18T14:32:31;33.00;44.20
53962;DHT22;39868;53.398;6.564;2022-07-18T14:34:59;32.90;44.80
53962;DHT22;39868;53.398;6.564;2022-07-18T14:37:26;32.90;44.40
53962;DHT22;39868;53.398;6.564;2022-07-18T14:39:54;32.90;44.10
53962;DHT22;39868;53.398;6.564;2022-07-18T14:42:23;32.70;44.60
53962;DHT22;39868;53.398;6.564;2022-07-18T14:44:52;32.70;43.90
53962;DHT22;39868;53.398;6.564;2022-07-18T14:47:20;32.60;43.80
53962;DHT22;39868;53.398;6.564;2022-07-18T14:49:48;32.40;43.90
53962;DHT22;39868;53.398;6.564;2022-07-18T14:52:16;32.30;43.70
53962;DHT22;39868;53.398;6.564;2022-07-18T14:54:43;32.10;44.90
53962;DHT22;39868;53.398;6.564;2022-07-18T14:57:11;32.00;44.60
53962;DHT22;39868;53.398;6.564;2022-07-18T14:59:41;31.80;44.60
53962;DHT22;39868;53.398;6.564;2022-07-18T15:02:09;31.60;44.90
53962;DHT22;39868;53.398;6.564;2022-07-18T15:04:36;31.50;45.40
53962;DHT22;39868;53.398;6.564;2022-07-18T15:07:04;31.30;45.70
53962;DHT22;39868;53.398;6.564;2022-07-18T15:09:32;31.10;45.80
53962;DHT22;39868;53.398;6.564;2022-07-18T15:12:01;31.00;45.90
53962;DHT22;39868;53.398;6.564;2022-07-18T15:14:28;30.90;45.30
53962;DHT22;39868;53.398;6.564;2022-07-18T15:16:56;30.80;45.10
53962;DHT22;39868;53.398;6.564;2022-07-18T15:19:24;30.60;45.30
53962;DHT22;39868;53.398;6.564;2022-07-18T15:21:51;30.50;45.90
53962;DHT22;39868;53.398;6.564;2022-07-18T15:24:19;30.50;45.80
53962;DHT22;39868;53.398;6.564;2022-07-18T15:26:47;30.40;45.70
53962;DHT22;39868;53.398;6.564;2022-07-18T15:29:14;30.40;46.10
53962;DHT22;39868;53.398;6.564;2022-07-18T15:31:42;30.30;45.90
53962;DHT22;39868;53.398;6.564;2022-07-18T15:34:09;30.30;46.00
53962;DHT22;39868;53.398;6.564;2022-07-18T15:36:36;30.20;45.80
53962;DHT22;39868;53.398;6.564;2022-07-18T15:39:04;30.20;46.40
53962;DHT22;39868;53.398;6.564;2022-07-18T15:41:31;30.10;46.10
53962;DHT22;39868;53.398;6.564;2022-07-18T15:43:59;30.00;46.20
53962;DHT22;39868;53.398;6.564;2022-07-18T15:46:27;30.00;46.40
53962;DHT22;39868;53.398;6.564;2022-07-18T15:48:55;29.90;46.30
53962;DHT22;39868;53.398;6.564;2022-07-18T15:51:22;29.90;46.90
53962;DHT22;39868;53.398;6.564;2022-07-18T15:53:50;29.80;47.00
53962;DHT22;39868;53.398;6.564;2022-07-18T15:56:18;29.80;46.90
53962;DHT22;39868;53.398;6.564;2022-07-18T15:58:45;29.80;46.50
53962;DHT22;39868;53.398;6.564;2022-07-18T16:01:12;29.90;46.40
53962;DHT22;39868;53.398;6.564;2022-07-18T16:03:40;29.90;46.30
53962;DHT22;39868;53.398;6.564;2022-07-18T16:06:07;29.90;47.20
53962;DHT22;39868;53.398;6.564;2022-07-18T16:08:35;29.90;47.10
53962;DHT22;39868;53.398;6.564;2022-07-18T16:11:03;29.90;46.10
53962;DHT22;39868;53.398;6.564;2022-07-18T16:13:31;29.90;46.90
53962;DHT22;39868;53.398;6.564;2022-07-18T16:15:58;29.90;46.40
53962;DHT22;39868;53.398;6.564;2022-07-18T16:18:26;29.80;46.30
53962;DHT22;39868;53.398;6.564;2022-07-18T16:20:54;29.90;47.00
53962;DHT22;39868;53.398;6.564;2022-07-18T16:23:21;29.80;46.20
53962;DHT22;39868;53.398;6.564;2022-07-18T16:25:48;29.90;46.50
53962;DHT22;39868;53.398;6.564;2022-07-18T16:28:16;29.90;46.30
53962;DHT22;39868;53.398;6.564;2022-07-18T16:30:43;29.90;45.80
53962;DHT22;39868;53.398;6.564;2022-07-18T16:33:11;29.90;46.00
53962;DHT22;39868;53.398;6.564;2022-07-18T16:35:38;29.90;46.10